sensor_id;sensor_type;location;lat;lon;timestamp;P1;durP1;ratioP1;P2;durP2;ratioP2
47617;SDS011;33336;36.728;-4.414;2023-03-04T00:04:36;7.90;;;3.28;;
47617;SDS011;33336;36.728;-4.414;2023-03-04T00:09:41;5.57;;;3.05;;
47617;SDS011;33336;36.728;-4.414;2023-03-04T00:14:44;6.25;;;3.70;;
47617;SDS011;33336;36.728;-4.414;2023-03-04T00:19:47;4.70;;;3.00;;
47617;SDS011;33336;36.728;-4.414;2023-03-04T00:24:52;4.75;;;2.63;;
47617;SDS011;33336;36.728;-4.414;2023-03-04T00:29:55;3.47;;;2.90;;
47617;SDS011;33336;36.728;-4.414;2023-03-04T00:34:58;7.45;;;3.20;;
47617;SDS011;33336;36.728;-4.414;2023-03-04T00:40:04;5.18;;;3.45;;
47617;SDS011;33336;36.728;-4.414;2023-03-04T00:45:08;5.22;;;3.47;;
47617;SDS011;33336;36.728;-4.414;2023-03-04T00:50:11;3.72;;;2.88;;
47617;SDS011;33336;36.728;-4.414;2023-03-04T00:55:16;16.90;;;4.15;;
47617;SDS011;33336;36.728;-4.414;2023-03-04T01:00:19;5.72;;;3.20;;
47617;SDS011;33336;36.728;-4.414;2023-03-04T01:05:22;3.75;;;2.38;;
47617;SDS011;33336;36.728;-4.414;2023-03-04T01:10:27;5.43;;;2.30;;
47617;SDS011;33336;36.728;-4.414;2023-03-04T01:15:30;6.65;;;2.40;;
47617;SDS011;33336;36.728;-4.414;2023-03-04T01:20:33;5.00;;;2.35;;
47617;SDS011;33336;36.728;-4.414;2023-03-04T01:25:38;3.35;;;2.25;;
47617;SDS011;33336;36.728;-4.414;2023-03-04T01:30:40;4.82;;;2.20;;
47617;SDS011;33336;36.728;-4.414;2023-03-04T01:35:44;3.90;;;2.22;;
47617;SDS011;33336;36.728;-4.414;2023-03-04T01:40:48;8.40;;;2.95;;
47617;SDS011;33336;36.728;-4.414;2023-03-04T01:45:51;7.80;;;3.10;;
47617;SDS011;33336;36.728;-4.414;2023-03-04T01:50:56;4.88;;;2.60;;
47617;SDS011;33336;36.728;-4.414;2023-03-04T01:56:10;8.30;;;2.92;;
47617;SDS011;33336;36.728;-4.414;2023-03-04T02:01:17;6.05;;;2.75;;
47617;SDS011;33336;36.728;-4.414;2023-03-04T02:06:20;5.40;;;3.08;;
47617;SDS011;33336;36.728;-4.414;2023-03-04T02:11:25;3.88;;;2.10;;
47617;SDS011;33336;36.728;-4.414;2023-03-04T02:16:28;3.03;;;2.00;;
47617;SDS011;33336;36.728;-4.414;2023-03-04T02:21:32;5.78;;;2.17;;
47617;SDS011;33336;36.728;-4.414;2023-03-04T02:26:37;3.25;;;2.45;;
47617;SDS011;33336;36.728;-4.414;2023-03-04T02:31:43;4.93;;;2.30;;
47617;SDS011;33336;36.728;-4.414;2023-03-04T02:36:48;4.63;;;2.30;;
47617;SDS011;33336;36.728;-4.414;2023-03-04T02:41:55;8.02;;;2.90;;
47617;SDS011;33336;36.728;-4.414;2023-03-04T02:46:58;4.50;;;2.15;;
47617;SDS011;33336;36.728;-4.414;2023-03-04T02:52:03;14.63;;;2.50;;
47617;SDS011;33336;36.728;-4.414;2023-03-04T02:57:09;4.10;;;1.73;;
47617;SDS011;33336;36.728;-4.414;2023-03-04T03:02:14;4.38;;;1.58;;
47617;SDS011;33336;36.728;-4.414;2023-03-04T03:07:17;3.17;;;2.13;;
47617;SDS011;33336;36.728;-4.414;2023-03-04T03:12:22;3.58;;;1.92;;
47617;SDS011;33336;36.728;-4.414;2023-03-04T03:17:24;4.47;;;2.40;;
47617;SDS011;33336;36.728;-4.414;2023-03-04T03:22:27;4.25;;;2.15;;
47617;SDS011;33336;36.728;-4.414;2023-03-04T03:27:31;4.43;;;2.47;;
47617;SDS011;33336;36.728;-4.414;2023-03-04T03:32:34;4.72;;;2.38;;
47617;SDS011;33336;36.728;-4.414;2023-03-04T03:37:38;6.13;;;2.40;;
47617;SDS011;33336;36.728;-4.414;2023-03-04T03:42:42;8.45;;;2.15;;
47617;SDS011;33336;36.728;-4.414;2023-03-04T03:47:45;2.72;;;2.30;;
47617;SDS011;33336;36.728;-4.414;2023-03-04T03:52:48;3.10;;;1.80;;
47617;SDS011;33336;36.728;-4.414;2023-03-04T03:57:52;3.70;;;2.38;;
47617;SDS011;33336;36.728;-4.414;2023-03-04T04:02:55;3.05;;;1.88;;
47617;SDS011;33336;36.728;-4.414;2023-03-04T04:08:01;4.68;;;2.75;;
47617;SDS011;33336;36.728;-4.414;2023-03-04T04:13:06;4.82;;;2.15;;
47617;SDS011;33336;36.728;-4.414;2023-03-04T04:18:09;5.93;;;2.53;;
47617;SDS011;33336;36.728;-4.414;2023-03-04T04:23:12;4.93;;;2.53;;
47617;SDS011;33336;36.728;-4.414;2023-03-04T04:28:17;5.38;;;2.25;;
47617;SDS011;33336;36.728;-4.414;2023-03-04T04:33:19;3.45;;;2.22;;
47617;SDS011;33336;36.728;-4.414;2023-03-04T04:38:23;3.75;;;1.83;;
47617;SDS011;33336;36.728;-4.414;2023-03-04T04:43:27;2.80;;;1.88;;
47617;SDS011;33336;36.728;-4.414;2023-03-04T04:48:30;4.32;;;2.05;;
47617;SDS011;33336;36.728;-4.414;2023-03-04T04:53:33;7.72;;;2.00;;
47617;SDS011;33336;36.728;-4.414;2023-03-04T04:58:38;3.08;;;2.08;;
47617;SDS011;33336;36.728;-4.414;2023-03-04T05:03:41;4.40;;;1.60;;
47617;SDS011;33336;36.728;-4.414;2023-03-04T05:08:44;4.40;;;2.30;;
47617;SDS011;33336;36.728;-4.414;2023-03-04T05:13:48;3.15;;;1.88;;
47617;SDS011;33336;36.728;-4.414;2023-03-04T05:18:51;4.18;;;2.40;;
47617;SDS011;33336;36.728;-4.414;2023-03-04T05:23:54;4.00;;;1.52;;
47617;SDS011;33336;36.728;-4.414;2023-03-04T05:28:59;6.15;;;1.67;;
47617;SDS011;33336;36.728;-4.414;2023-03-04T05:34:01;2.03;;;1.52;;
47617;SDS011;33336;36.728;-4.414;2023-03-04T05:39:05;2.65;;;1.75;;
47617;SDS011;33336;36.728;-4.414;2023-03-04T05:44:09;3.60;;;1.65;;
47617;SDS011;33336;36.728;-4.414;2023-03-04T05:49:13;5.35;;;1.95;;
47617;SDS011;33336;36.728;-4.414;2023-03-04T05:54:16;5.22;;;2.15;;
47617;SDS011;33336;36.728;-4.414;2023-03-04T05:59:21;4.68;;;1.98;;
47617;SDS011;33336;36.728;-4.414;2023-03-04T06:04:23;4.55;;;2.33;;
47617;SDS011;33336;36.728;-4.414;2023-03-04T06:09:27;5.20;;;2.10;;
47617;SDS011;33336;36.728;-4.414;2023-03-04T06:14:31;8.13;;;3.70;;
47617;SDS011;33336;36.728;-4.414;2023-03-04T06:19:35;3.92;;;2.10;;
47617;SDS011;33336;36.728;-4.414;2023-03-04T06:24:38;3.92;;;2.05;;
47617;SDS011;33336;36.728;-4.414;2023-03-04T06:29:43;6.75;;;2.15;;
47617;SDS011;33336;36.728;-4.414;2023-03-04T06:34:45;4.40;;;2.20;;
47617;SDS011;33336;36.728;-4.414;2023-03-04T06:39:49;3.38;;;2.40;;
47617;SDS011;33336;36.728;-4.414;2023-03-04T06:44:53;9.43;;;2.67;;
47617;SDS011;33336;36.728;-4.414;2023-03-04T06:49:57;4.90;;;2.47;;
47617;SDS011;33336;36.728;-4.414;2023-03-04T06:55:00;9.55;;;3.28;;
47617;SDS011;33336;36.728;-4.414;2023-03-04T07:00:05;4.88;;;2.80;;
47617;SDS011;33336;36.728;-4.414;2023-03-04T07:05:09;6.75;;;2.28;;
47617;SDS011;33336;36.728;-4.414;2023-03-04T07:10:13;9.27;;;2.67;;
47617;SDS011;33336;36.728;-4.414;2023-03-04T07:15:17;6.22;;;2.85;;
47617;SDS011;33336;36.728;-4.414;2023-03-04T07:20:21;5.97;;;3.05;;
47617;SDS011;33336;36.728;-4.414;2023-03-04T07:25:24;7.18;;;3.22;;
47617;SDS011;33336;36.728;-4.414;2023-03-04T07:30:29;6.07;;;3.38;;
47617;SDS011;33336;36.728;-4.414;2023-03-04T07:35:31;6.28;;;3.10;;
47617;SDS011;33336;36.728;-4.414;2023-03-04T07:40:34;5.30;;;3.08;;
47617;SDS011;33336;36.728;-4.414;2023-03-04T07:45:39;9.02;;;3.85;;
47617;SDS011;33336;36.728;-4.414;2023-03-04T07:50:42;7.47;;;4.07;;
47617;SDS011;33336;36.728;-4.414;2023-03-04T07:55:46;9.77;;;4.95;;
47617;SDS011;33336;36.728;-4.414;2023-03-04T08:00:51;9.02;;;4.07;;
47617;SDS011;33336;36.728;-4.414;2023-03-04T08:05:53;7.65;;;3.88;;
47617;SDS011;33336;36.728;-4.414;2023-03-04T08:10:57;5.57;;;3.75;;
47617;SDS011;33336;36.728;-4.414;2023-03-04T08:16:02;8.98;;;4.68;;
47617;SDS011;33336;36.728;-4.414;2023-03-04T08:21:07;13.30;;;5.35;;
47617;SDS011;33336;36.728;-4.414;2023-03-04T08:26:12;14.80;;;4.40;;
47617;SDS011;33336;36.728;-4.414;2023-03-04T08:31:19;5.93;;;4.38;;
47617;SDS011;33336;36.728;-4.414;2023-03-04T08:36:24;9.63;;;3.92;;
47617;SDS011;33336;36.728;-4.414;2023-03-04T08:41:27;8.32;;;4.15;;
47617;SDS011;33336;36.728;-4.414;2023-03-04T08:46:31;7.40;;;3.17;;
47617;SDS011;33336;36.728;-4.414;2023-03-04T08:51:36;8.13;;;3.60;;
47617;SDS011;33336;36.728;-4.414;2023-03-04T08:56:40;5.72;;;3.03;;
47617;SDS011;33336;36.728;-4.414;2023-03-04T09:01:46;5.95;;;2.83;;
47617;SDS011;33336;36.728;-4.414;2023-03-04T09:06:48;4.53;;;3.05;;
47617;SDS011;33336;36.728;-4.414;2023-03-04T09:11:52;9.00;;;3.13;;
47617;SDS011;33336;36.728;-4.414;2023-03-04T09:16:56;5.95;;;3.25;;
47617;SDS011;33336;36.728;-4.414;2023-03-04T09:22:00;10.38;;;3.30;;
47617;SDS011;33336;36.728;-4.414;2023-03-04T09:27:03;5.03;;;2.95;;
47617;SDS011;33336;36.728;-4.414;2023-03-04T09:32:07;9.23;;;3.40;;
47617;SDS011;33336;36.728;-4.414;2023-03-04T09:37:10;5.80;;;2.63;;
47617;SDS011;33336;36.728;-4.414;2023-03-04T09:42:16;7.63;;;2.50;;
47617;SDS011;33336;36.728;-4.414;2023-03-04T09:47:27;4.30;;;2.55;;
47617;SDS011;33336;36.728;-4.414;2023-03-04T09:52:36;4.25;;;2.45;;
47617;SDS011;33336;36.728;-4.414;2023-03-04T09:57:49;7.20;;;3.17;;
47617;SDS011;33336;36.728;-4.414;2023-03-04T10:03:05;5.85;;;3.10;;
47617;SDS011;33336;36.728;-4.414;2023-03-04T10:08:22;6.93;;;3.20;;
47617;SDS011;33336;36.728;-4.414;2023-03-04T10:13:40;5.53;;;3.05;;
47617;SDS011;33336;36.728;-4.414;2023-03-04T10:18:50;7.10;;;2.65;;
47617;SDS011;33336;36.728;-4.414;2023-03-04T10:23:58;8.95;;;3.03;;
47617;SDS011;33336;36.728;-4.414;2023-03-04T10:29:02;5.82;;;3.22;;
47617;SDS011;33336;36.728;-4.414;2023-03-04T10:34:09;3.83;;;2.53;;
47617;SDS011;33336;36.728;-4.414;2023-03-04T10:39:16;5.90;;;3.10;;
47617;SDS011;33336;36.728;-4.414;2023-03-04T10:44:22;5.72;;;2.85;;
47617;SDS011;33336;36.728;-4.414;2023-03-04T10:49:27;5.50;;;2.30;;
47617;SDS011;33336;36.728;-4.414;2023-03-04T10:54:33;7.60;;;2.92;;
47617;SDS011;33336;36.728;-4.414;2023-03-04T10:59:42;4.00;;;2.33;;
47617;SDS011;33336;36.728;-4.414;2023-03-04T11:04:52;4.32;;;2.50;;
47617;SDS011;33336;36.728;-4.414;2023-03-04T11:10:06;6.80;;;2.08;;
47617;SDS011;33336;36.728;-4.414;2023-03-04T11:15:16;7.55;;;2.72;;
47617;SDS011;33336;36.728;-4.414;2023-03-04T11:20:26;5.20;;;1.85;;
47617;SDS011;33336;36.728;-4.414;2023-03-04T11:25:34;4.57;;;2.88;;
47617;SDS011;33336;36.728;-4.414;2023-03-04T11:30:40;7.32;;;2.75;;
47617;SDS011;33336;36.728;-4.414;2023-03-04T11:35:52;12.10;;;2.22;;
47617;SDS011;33336;36.728;-4.414;2023-03-04T11:41:05;6.25;;;2.42;;
47617;SDS011;33336;36.728;-4.414;2023-03-04T11:51:48;5.13;;;2.70;;
47617;SDS011;33336;36.728;-4.414;2023-03-04T11:57:00;3.05;;;2.25;;
47617;SDS011;33336;36.728;-4.414;2023-03-04T12:02:10;30.38;;;6.10;;
47617;SDS011;33336;36.728;-4.414;2023-03-04T12:07:31;12.73;;;2.80;;
47617;SDS011;33336;36.728;-4.414;2023-03-04T12:12:57;4.15;;;1.90;;
47617;SDS011;33336;36.728;-4.414;2023-03-04T12:18:31;7.68;;;2.50;;
47617;SDS011;33336;36.728;-4.414;2023-03-04T12:24:07;4.30;;;2.15;;
47617;SDS011;33336;36.728;-4.414;2023-03-04T12:35:22;4.47;;;1.90;;
47617;SDS011;33336;36.728;-4.414;2023-03-04T12:40:39;5.93;;;2.38;;
47617;SDS011;33336;36.728;-4.414;2023-03-04T12:45:47;9.20;;;2.75;;
47617;SDS011;33336;36.728;-4.414;2023-03-04T12:51:09;10.57;;;2.03;;
47617;SDS011;33336;36.728;-4.414;2023-03-04T12:56:33;6.90;;;1.90;;
47617;SDS011;33336;36.728;-4.414;2023-03-04T13:01:43;6.40;;;1.88;;
47617;SDS011;33336;36.728;-4.414;2023-03-04T13:06:54;5.53;;;2.17;;
47617;SDS011;33336;36.728;-4.414;2023-03-04T13:12:14;15.98;;;3.22;;
47617;SDS011;33336;36.728;-4.414;2023-03-04T13:17:37;2.78;;;1.23;;
47617;SDS011;33336;36.728;-4.414;2023-03-04T13:22:48;3.20;;;1.80;;
47617;SDS011;33336;36.728;-4.414;2023-03-04T13:33:42;3.35;;;1.45;;
47617;SDS011;33336;36.728;-4.414;2023-03-04T13:39:00;5.90;;;2.30;;
47617;SDS011;33336;36.728;-4.414;2023-03-04T13:49:34;5.70;;;1.77;;
47617;SDS011;33336;36.728;-4.414;2023-03-04T13:54:38;4.15;;;2.15;;
47617;SDS011;33336;36.728;-4.414;2023-03-04T13:59:43;5.65;;;2.85;;
47617;SDS011;33336;36.728;-4.414;2023-03-04T14:04:55;6.82;;;2.17;;
47617;SDS011;33336;36.728;-4.414;2023-03-04T14:10:01;5.07;;;1.92;;
47617;SDS011;33336;36.728;-4.414;2023-03-04T14:15:15;8.15;;;2.30;;
47617;SDS011;33336;36.728;-4.414;2023-03-04T14:20:24;7.22;;;2.47;;
47617;SDS011;33336;36.728;-4.414;2023-03-04T14:25:30;7.13;;;1.58;;
47617;SDS011;33336;36.728;-4.414;2023-03-04T14:30:35;5.07;;;1.88;;
47617;SDS011;33336;36.728;-4.414;2023-03-04T14:35:39;2.55;;;1.60;;
47617;SDS011;33336;36.728;-4.414;2023-03-04T14:40:48;4.13;;;1.63;;
47617;SDS011;33336;36.728;-4.414;2023-03-04T14:45:56;4.93;;;1.85;;
47617;SDS011;33336;36.728;-4.414;2023-03-04T14:51:01;4.35;;;1.70;;
47617;SDS011;33336;36.728;-4.414;2023-03-04T14:56:05;3.92;;;1.80;;
47617;SDS011;33336;36.728;-4.414;2023-03-04T15:01:15;8.27;;;2.25;;
47617;SDS011;33336;36.728;-4.414;2023-03-04T15:06:20;6.20;;;2.03;;
47617;SDS011;33336;36.728;-4.414;2023-03-04T15:11:25;5.28;;;1.88;;
47617;SDS011;33336;36.728;-4.414;2023-03-04T15:22:03;4.47;;;1.60;;
47617;SDS011;33336;36.728;-4.414;2023-03-04T15:27:09;2.47;;;1.50;;
47617;SDS011;33336;36.728;-4.414;2023-03-04T15:32:15;3.85;;;1.77;;
47617;SDS011;33336;36.728;-4.414;2023-03-04T15:37:19;5.65;;;2.05;;
47617;SDS011;33336;36.728;-4.414;2023-03-04T15:42:24;8.70;;;3.50;;
47617;SDS011;33336;36.728;-4.414;2023-03-04T15:47:30;5.10;;;1.80;;
47617;SDS011;33336;36.728;-4.414;2023-03-04T15:52:33;5.47;;;1.88;;
47617;SDS011;33336;36.728;-4.414;2023-03-04T15:57:38;3.28;;;2.22;;
47617;SDS011;33336;36.728;-4.414;2023-03-04T16:02:42;5.88;;;3.20;;
47617;SDS011;33336;36.728;-4.414;2023-03-04T16:07:46;11.07;;;7.35;;
47617;SDS011;33336;36.728;-4.414;2023-03-04T16:12:51;10.13;;;4.53;;
47617;SDS011;33336;36.728;-4.414;2023-03-04T16:17:56;5.88;;;4.53;;
47617;SDS011;33336;36.728;-4.414;2023-03-04T16:22:59;8.77;;;6.25;;
47617;SDS011;33336;36.728;-4.414;2023-03-04T16:28:05;10.52;;;6.57;;
47617;SDS011;33336;36.728;-4.414;2023-03-04T16:33:09;11.48;;;6.18;;
47617;SDS011;33336;36.728;-4.414;2023-03-04T16:38:16;6.22;;;3.35;;
47617;SDS011;33336;36.728;-4.414;2023-03-04T16:43:26;4.63;;;1.80;;
47617;SDS011;33336;36.728;-4.414;2023-03-04T16:48:31;3.67;;;1.85;;
47617;SDS011;33336;36.728;-4.414;2023-03-04T16:53:35;8.25;;;2.53;;
47617;SDS011;33336;36.728;-4.414;2023-03-04T16:58:41;4.20;;;2.27;;
47617;SDS011;33336;36.728;-4.414;2023-03-04T17:03:46;4.85;;;2.92;;
47617;SDS011;33336;36.728;-4.414;2023-03-04T17:08:50;3.88;;;1.98;;
47617;SDS011;33336;36.728;-4.414;2023-03-04T17:13:53;9.70;;;2.38;;
47617;SDS011;33336;36.728;-4.414;2023-03-04T17:18:57;6.75;;;2.08;;
47617;SDS011;33336;36.728;-4.414;2023-03-04T17:24:00;4.45;;;2.10;;
47617;SDS011;33336;36.728;-4.414;2023-03-04T17:29:05;5.30;;;1.98;;
47617;SDS011;33336;36.728;-4.414;2023-03-04T17:34:09;5.18;;;1.92;;
47617;SDS011;33336;36.728;-4.414;2023-03-04T17:39:14;8.50;;;2.72;;
47617;SDS011;33336;36.728;-4.414;2023-03-04T17:44:17;4.63;;;2.30;;
47617;SDS011;33336;36.728;-4.414;2023-03-04T17:49:22;6.22;;;2.50;;
47617;SDS011;33336;36.728;-4.414;2023-03-04T17:54:25;4.40;;;1.63;;
47617;SDS011;33336;36.728;-4.414;2023-03-04T17:59:29;4.70;;;2.42;;
47617;SDS011;33336;36.728;-4.414;2023-03-04T18:04:33;4.68;;;2.90;;
47617;SDS011;33336;36.728;-4.414;2023-03-04T18:09:37;3.85;;;2.80;;
47617;SDS011;33336;36.728;-4.414;2023-03-04T18:14:40;7.63;;;2.95;;
47617;SDS011;33336;36.728;-4.414;2023-03-04T18:19:44;4.32;;;2.70;;
47617;SDS011;33336;36.728;-4.414;2023-03-04T18:24:47;3.40;;;2.53;;
47617;SDS011;33336;36.728;-4.414;2023-03-04T18:29:51;6.13;;;3.00;;
47617;SDS011;33336;36.728;-4.414;2023-03-04T18:34:55;5.97;;;3.20;;
47617;SDS011;33336;36.728;-4.414;2023-03-04T18:39:59;6.40;;;3.38;;
47617;SDS011;33336;36.728;-4.414;2023-03-04T18:45:02;7.15;;;3.58;;
47617;SDS011;33336;36.728;-4.414;2023-03-04T18:50:08;5.30;;;2.85;;
47617;SDS011;33336;36.728;-4.414;2023-03-04T18:55:12;8.05;;;3.53;;
47617;SDS011;33336;36.728;-4.414;2023-03-04T19:00:15;6.97;;;3.60;;
47617;SDS011;33336;36.728;-4.414;2023-03-04T19:05:22;6.35;;;3.50;;
47617;SDS011;33336;36.728;-4.414;2023-03-04T19:10:28;6.47;;;4.13;;
47617;SDS011;33336;36.728;-4.414;2023-03-04T19:15:31;4.53;;;3.03;;
47617;SDS011;33336;36.728;-4.414;2023-03-04T19:20:35;5.97;;;3.38;;
47617;SDS011;33336;36.728;-4.414;2023-03-04T19:25:40;9.68;;;3.55;;
47617;SDS011;33336;36.728;-4.414;2023-03-04T19:30:45;4.25;;;3.25;;
47617;SDS011;33336;36.728;-4.414;2023-03-04T19:35:49;10.98;;;3.83;;
47617;SDS011;33336;36.728;-4.414;2023-03-04T19:40:53;13.65;;;3.67;;
47617;SDS011;33336;36.728;-4.414;2023-03-04T19:45:56;6.40;;;3.72;;
47617;SDS011;33336;36.728;-4.414;2023-03-04T19:51:00;10.10;;;4.70;;
47617;SDS011;33336;36.728;-4.414;2023-03-04T19:56:04;11.68;;;5.22;;
47617;SDS011;33336;36.728;-4.414;2023-03-04T20:01:17;7.57;;;4.10;;
47617;SDS011;33336;36.728;-4.414;2023-03-04T20:06:23;8.45;;;5.15;;
47617;SDS011;33336;36.728;-4.414;2023-03-04T20:11:27;10.48;;;5.47;;
47617;SDS011;33336;36.728;-4.414;2023-03-04T20:16:31;11.85;;;6.28;;
47617;SDS011;33336;36.728;-4.414;2023-03-04T20:21:37;7.60;;;4.85;;
47617;SDS011;33336;36.728;-4.414;2023-03-04T20:26:40;9.52;;;6.07;;
47617;SDS011;33336;36.728;-4.414;2023-03-04T20:31:44;8.63;;;5.38;;
47617;SDS011;33336;36.728;-4.414;2023-03-04T20:36:48;10.05;;;5.65;;
47617;SDS011;33336;36.728;-4.414;2023-03-04T20:41:52;8.32;;;4.70;;
47617;SDS011;33336;36.728;-4.414;2023-03-04T20:46:55;9.00;;;3.42;;
47617;SDS011;33336;36.728;-4.414;2023-03-04T20:52:00;9.52;;;3.80;;
47617;SDS011;33336;36.728;-4.414;2023-03-04T21:02:12;5.35;;;3.80;;
47617;SDS011;33336;36.728;-4.414;2023-03-04T21:07:18;11.48;;;4.18;;
47617;SDS011;33336;36.728;-4.414;2023-03-04T21:12:21;4.70;;;3.33;;
47617;SDS011;33336;36.728;-4.414;2023-03-04T21:17:24;10.48;;;3.70;;
47617;SDS011;33336;36.728;-4.414;2023-03-04T21:22:28;12.10;;;5.07;;
47617;SDS011;33336;36.728;-4.414;2023-03-04T21:27:31;9.32;;;5.38;;
47617;SDS011;33336;36.728;-4.414;2023-03-04T21:32:39;7.03;;;4.88;;
47617;SDS011;33336;36.728;-4.414;2023-03-04T21:37:43;11.10;;;4.85;;
47617;SDS011;33336;36.728;-4.414;2023-03-04T21:42:47;7.65;;;4.38;;
47617;SDS011;33336;36.728;-4.414;2023-03-04T21:47:49;7.60;;;4.90;;
47617;SDS011;33336;36.728;-4.414;2023-03-04T21:52:54;9.05;;;3.75;;
47617;SDS011;33336;36.728;-4.414;2023-03-04T21:57:57;7.72;;;4.35;;
47617;SDS011;33336;36.728;-4.414;2023-03-04T22:03:00;8.90;;;5.60;;
47617;SDS011;33336;36.728;-4.414;2023-03-04T22:08:04;7.07;;;4.97;;
47617;SDS011;33336;36.728;-4.414;2023-03-04T22:13:08;13.30;;;7.97;;
47617;SDS011;33336;36.728;-4.414;2023-03-04T22:18:12;12.00;;;6.82;;
47617;SDS011;33336;36.728;-4.414;2023-03-04T22:23:17;9.18;;;5.95;;
47617;SDS011;33336;36.728;-4.414;2023-03-04T22:28:20;9.18;;;5.53;;
47617;SDS011;33336;36.728;-4.414;2023-03-04T22:33:28;5.80;;;4.07;;
47617;SDS011;33336;36.728;-4.414;2023-03-04T22:38:38;10.02;;;6.07;;
47617;SDS011;33336;36.728;-4.414;2023-03-04T22:43:42;9.10;;;4.50;;
47617;SDS011;33336;36.728;-4.414;2023-03-04T22:48:45;9.95;;;5.05;;
47617;SDS011;33336;36.728;-4.414;2023-03-04T22:53:50;7.57;;;4.95;;
47617;SDS011;33336;36.728;-4.414;2023-03-04T22:58:53;7.85;;;4.53;;
47617;SDS011;33336;36.728;-4.414;2023-03-04T23:03:57;5.35;;;4.53;;
47617;SDS011;33336;36.728;-4.414;2023-03-04T23:09:01;8.60;;;3.97;;
47617;SDS011;33336;36.728;-4.414;2023-03-04T23:14:06;6.32;;;3.60;;
47617;SDS011;33336;36.728;-4.414;2023-03-04T23:19:12;10.82;;;4.45;;
47617;SDS011;33336;36.728;-4.414;2023-03-04T23:24:17;9.75;;;4.60;;
47617;SDS011;33336;36.728;-4.414;2023-03-04T23:29:20;6.72;;;4.88;;
47617;SDS011;33336;36.728;-4.414;2023-03-04T23:34:24;10.80;;;4.88;;
47617;SDS011;33336;36.728;-4.414;2023-03-04T23:39:28;5.70;;;3.60;;
47617;SDS011;33336;36.728;-4.414;2023-03-04T23:44:32;12.35;;;4.00;;
47617;SDS011;33336;36.728;-4.414;2023-03-04T23:49:35;8.75;;;3.83;;
47617;SDS011;33336;36.728;-4.414;2023-03-04T23:54:39;7.35;;;3.97;;
47617;SDS011;33336;36.728;-4.414;2023-03-04T23:59:42;7.60;;;3.63;;
